Santiago Ríos

Recruteur en chef - Huesca
3 Févr 2028
Jeudi
Processus

Personnalité

Adaptabilité (8) Ambition (7) Controverse (12) Loyauté (11) Pression (8) Professionnalisme (5) Sportivité (2) Tempérament (11)

Profil

Style d'entraînement Démocratique
Diplôme Continental A
Détermination 11
Gestion des joueurs 5
Motivation 8
Discipline 10
Satisfaction professionnelle
100%
Fatigue
0%
Rôle Recruteur en chef
Salaire 55.6K p/s
Contrat 14.03.2029

Performance

Comportement Bon
Efficacité de l'entraînement
36%
Développement des joueurs
20%
Prévention des blessures
25%
Mise en place tactique
60%

Événements récents

A participé à une réunion de recrutement maintenant
A recommandé une cible de transfert maintenant
A participé à une réunion de recrutement maintenant
A recommandé une cible de transfert 7j
A participé à une réunion de recrutement 7j
A recommandé une cible de transfert 7j
A présenté un dossier au conseil 7j
A observé un match 7j

Suivi en cours

89
Joueur Club Statut Capacité Confiance Observé Dernière observation Dernier vote
Rodrigo Bogarín Barracas Central Négociation 124 / 116 40% 1 24.01.2028 -
Martín Ojeda Orlando City Actif 133 / 118 40% 1 24.01.2028 -
Lucas Fernandes Betis Actif 124 / 111 62% 1 17.01.2028 Approuver
Steven Alzate Atlanta United FC Actif 127 / 141 40% 1 04.01.2028 -
Evander FC Cincinnati Actif 134 / 131 40% 1 04.01.2028 -
Facundo Salinas Vélez Actif 88 / 99 40% 2 31.08.2027 -
Facundo Martínez Montevideo City Torque Actif 79 / 82 40% 1 31.08.2027 -
Alejo Navarro Newell's Old Boys Actif 92 / 89 40% 2 27.08.2027 -
Darlvin Yeboah Bechem United Actif 72 / 91 40% 1 27.08.2027 -
Luka Andrade Montevideo City Torque Actif 109 / 110 40% 3 26.08.2027 -
Bautista Pereira Cerro Largo Actif 94 / 98 40% 1 26.08.2027 -
Felipe Serrés Wanderers Actif 103 / 93 40% 1 22.08.2027 -
Edmund Baidoo Borussia Dortmund Actif 121 / 142 40% 2 20.08.2027 -
Pablo Suárez Rentistas Actif 94 / 98 40% 1 20.08.2027 -
Matías Acevedo Racing Club Actif 109 / 108 40% 1 18.08.2027 -
Risilanu Ismail El-Kanemi Warriors Actif 90 / 107 40% 1 16.08.2027 -
Rodhier Lezama Caracas Actif 89 / 82 40% 1 15.08.2027 -
Aldo Fuentes Madryn Actif 76 / 90 40% 1 14.08.2027 -
Alan Coria Villarreal Actif 103 / 111 40% 2 13.08.2027 -
Emmanuel Gono AIK Actif 102 / 114 40% 1 10.08.2027 -
Santiago Montoya Leones Actif 94 / 85 40% 1 09.08.2027 -
Matías Jaime General Diaz Actif 87 / 87 40% 1 09.08.2027 -
Mirko Parassole Agropecuario Argentino Actif 85 / 92 40% 1 08.08.2027 -
Bruno Fernández Independiente Actif 91 / 84 40% 1 08.08.2027 -
Exequiel Mereles Nacional Actif 103 / 122 40% 1 07.08.2027 -
Daichi Suzuki Sagan Tosu Actif 92 / 71 40% 1 03.08.2027 -
Sebastián Caballero Barranquilla Actif 83 / 89 40% 2 31.07.2027 -
Juan Méndez Mineros de Guayana Actif 74 / 100 40% 1 31.07.2027 -
Bautista Hernández San Lorenzo Actif 82 / 92 40% 1 31.07.2027 -
Gianluca Banuera Tristán Suárez Actif 86 / 97 40% 1 30.07.2027 -
Nahuel López Nacional Actif 97 / 110 40% 1 30.07.2027 -
Celías Ingenthron Racing Club Actif 120 / 134 40% 1 28.07.2027 -
Maximo Ingravidi Lanús Actif 111 / 109 40% 1 27.07.2027 -
Martim Cunha Porto Actif 106 / 121 40% 4 22.07.2027 -
Mohamed Bolivar Barranquilla Actif 88 / 84 40% 1 22.07.2027 -
Elie N'Gatta Sochaux Actif 95 / 105 40% 2 21.07.2027 -
Lucan Louw AS Police Actif 77 / 87 40% 1 19.07.2027 -
Milan Roganović Partizan Actif 120 / 125 40% 1 19.07.2027 -
Lucas Camilo Puebla Actif 75 / 111 40% 1 18.07.2027 -
Ibrahim Sabiu Bendel Insurance Actif 71 / 76 40% 2 16.07.2027 -
Yassine Khalifi Charleroi Actif 106 / 121 40% 4 15.07.2027 -
Mats Egbring Heerenveen Actif 102 / 102 40% 2 14.07.2027 -
Harley Mills Peterborough United Actif 106 / 102 40% 1 13.07.2027 -
Hassan Beja AFC Leopards Actif 75 / 88 40% 1 12.07.2027 -
Mauricio Amaro Atlanta United FC Actif 113 / 120 40% 1 08.07.2027 -
Marco Oroná Antofagasta Actif 95 / 110 40% 1 08.07.2027 -
Fabián Correa Barranquilla Actif 90 / 91 40% 2 05.07.2027 -
Simone Kosijer Triestina Actif 107 / 91 40% 2 04.07.2027 -
Kaick FC Dallas Actif 103 / 94 40% 1 04.07.2027 -
Vanja Dragojević Partizan Actif 115 / 125 40% 1 02.07.2027 -
José Pachuca Puebla Actif 104 / 98 40% 4 28.06.2027 Observer
Mads Abrahamsen Saturn Actif 85 / 80 40% 1 28.06.2027 -
Arjan Malić Sturm Graz Actif 116 / 138 40% 3 23.06.2027 -
Borna Knezović Casarano Actif 104 / 116 40% 1 19.06.2027 -
Luca Maiorano Ospitaletto Actif 95 / 99 40% 1 19.06.2027 -
Nemanja Radoja Cultural Leonesa Actif 123 / 107 62% 1 14.06.2027 Approuver
Godwin Oham Warri Wolves Actif 99 / 75 40% 1 11.06.2027 -
Denys Smetana Inhulets Actif 94 / 94 40% 2 10.06.2027 -
Esteban de Lima Tacuarembo Actif 85 / 103 40% 1 08.06.2027 -
Kian Best Eibar Actif 90 / 92 40% 1 07.06.2027 -
Maxim Radchenko Rostov Actif 80 / 99 40% 1 06.06.2027 -
Mattia Mannini Juve Stabia Négociation 108 / 114 40% 1 31.01.2027 -
Jonathan Bland Barnsley Actif 110 / 107 40% 1 29.01.2027 -
Axel Frugone Defensor Sporting Actif 123 / 126 40% 1 29.01.2027 -
Dylan Lawlor Cardiff City Actif 120 / 112 40% 1 27.01.2027 -
Pape Diong Westerlo Actif 103 / 113 40% 1 27.01.2027 -
Cheveyo Tsawa Club Brugge Actif 118 / 134 40% 1 22.01.2027 -
Tomy Carbonell Real Sociedad Actif 113 / 118 40% 1 21.01.2027 Plus d'infos
Gady Beyuku Modena Actif 110 / 114 40% 1 20.01.2027 -
Alessandro Zoboletti Sambenedettese Actif 99 / 90 40% 1 20.01.2027 -
Dylan Gorosito Boca Juniors Actif 101 / 131 40% 1 18.01.2027 -
Isaí Valladares Zamora Actif 107 / 100 40% 1 15.01.2027 -
Ignacio Ovando Rosario Central Actif 94 / 126 40% 1 15.01.2027 -
Taras Mykhavko Dynamo Kyiv Actif 127 / 120 40% 1 09.01.2027 -
Juan Pablo De la Reta Maipú Actif 103 / 125 40% 1 03.01.2027 -
Juho Lähteenmäki FC Nordsjaelland Actif 115 / 113 40% 1 03.01.2027 -
Ignacio Perruzzi San Lorenzo Actif 116 / 126 40% 1 02.01.2027 -
Viktor Pekarik FK Senica Actif 117 / 114 40% 1 02.01.2027 -
Lucio Valdez Vélez Actif 93 / 109 40% 1 31.08.2026 Plus d'infos
Mbekezeli Mbokazi Chicago Fire Actif 133 / 118 40% 1 27.08.2026 -
Jonathan Pérez Guadalajara Actif 118 / 119 40% 1 26.08.2026 -
Gonzalo Escudero Racing Club Actif 112 / 108 40% 1 26.08.2026 -
Pablo Ferreira Platense Actif 102 / 122 40% 1 24.08.2026 -
Lautaro Quiroga Defensa y Justicia Actif 90 / 97 40% 1 18.08.2026 -
Gonzalo Bordón Independiente Actif 102 / 115 40% 1 13.08.2026 -
Agustín Obregón River Plate Actif 105 / 118 40% 1 13.08.2026 -
Juan Morán Godoy Cruz Actif 98 / 106 40% 1 10.08.2026 -
Santino Barbi Talleres Actif 104 / 114 40% 2 03.08.2026 -
Nicolás Fernández Belgrano Actif 127 / 129 40% 1 03.08.2026 -